sensor_id;sensor_type;location;lat;lon;timestamp;temperature;humidity
65478;SHT31;53678;39.642;22.430;2022-08-11T00:01:09;28.64;41.81
65478;SHT31;53678;39.642;22.430;2022-08-11T00:03:46;28.54;42.09
65478;SHT31;53678;39.642;22.430;2022-08-11T00:06:14;28.68;41.71
65478;SHT31;53678;39.642;22.430;2022-08-11T00:08:42;28.65;41.73
65478;SHT31;53678;39.642;22.430;2022-08-11T00:11:14;28.43;42.02
65478;SHT31;53678;39.642;22.430;2022-08-11T00:13:45;28.61;41.85
65478;SHT31;53678;39.642;22.430;2022-08-11T00:16:16;28.50;41.83
65478;SHT31;53678;39.642;22.430;2022-08-11T00:18:48;28.64;41.75
65478;SHT31;53678;39.642;22.430;2022-08-11T00:21:14;28.77;41.60
65478;SHT31;53678;39.642;22.430;2022-08-11T00:23:45;28.70;41.84
65478;SHT31;53678;39.642;22.430;2022-08-11T00:26:12;28.33;42.53
65478;SHT31;53678;39.642;22.430;2022-08-11T00:28:39;28.22;42.81
65478;SHT31;53678;39.642;22.430;2022-08-11T00:31:08;28.26;43.02
65478;SHT31;53678;39.642;22.430;2022-08-11T00:33:38;28.12;43.24
65478;SHT31;53678;39.642;22.430;2022-08-11T00:36:07;28.23;43.22
65478;SHT31;53678;39.642;22.430;2022-08-11T00:38:37;28.30;43.11
65478;SHT31;53678;39.642;22.430;2022-08-11T00:41:08;28.22;43.31
65478;SHT31;53678;39.642;22.430;2022-08-11T00:47:10;28.27;43.31
65478;SHT31;53678;39.642;22.430;2022-08-11T01:00:23;28.40;43.43
65478;SHT31;53678;39.642;22.430;2022-08-11T01:03:29;28.29;43.65
65478;SHT31;53678;39.642;22.430;2022-08-11T01:06:46;28.03;44.26
65478;SHT31;53678;39.642;22.430;2022-08-11T01:55:42;27.34;46.66
65478;SHT31;53678;39.642;22.430;2022-08-11T02:06:45;27.57;46.44
65478;SHT31;53678;39.642;22.430;2022-08-11T02:12:18;27.44;47.15
65478;SHT31;53678;39.642;22.430;2022-08-11T02:15:28;27.35;47.16
65478;SHT31;53678;39.642;22.430;2022-08-11T02:20:53;27.20;47.31
65478;SHT31;53678;39.642;22.430;2022-08-11T02:23:57;27.30;46.98
65478;SHT31;53678;39.642;22.430;2022-08-11T02:26:38;27.31;46.65
65478;SHT31;53678;39.642;22.430;2022-08-11T02:32:11;27.52;46.46
65478;SHT31;53678;39.642;22.430;2022-08-11T02:35:10;27.61;46.67
65478;SHT31;53678;39.642;22.430;2022-08-11T02:57:28;27.23;48.70
65478;SHT31;53678;39.642;22.430;2022-08-11T03:00:04;27.18;48.84
65478;SHT31;53678;39.642;22.430;2022-08-11T03:02:53;27.22;48.77
65478;SHT31;53678;39.642;22.430;2022-08-11T03:13:19;26.99;48.73
65478;SHT31;53678;39.642;22.430;2022-08-11T03:16:42;26.90;48.92
65478;SHT31;53678;39.642;22.430;2022-08-11T03:24:42;26.68;49.67
65478;SHT31;53678;39.642;22.430;2022-08-11T03:35:01;26.82;49.80
65478;SHT31;53678;39.642;22.430;2022-08-11T03:37:50;26.65;50.29
65478;SHT31;53678;39.642;22.430;2022-08-11T03:43:40;26.36;51.58
65478;SHT31;53678;39.642;22.430;2022-08-11T03:49:31;26.41;51.47
65478;SHT31;53678;39.642;22.430;2022-08-11T03:52:26;26.38;51.70
65478;SHT31;53678;39.642;22.430;2022-08-11T03:58:03;26.45;51.81
65478;SHT31;53678;39.642;22.430;2022-08-11T04:01:02;26.38;51.90
65478;SHT31;53678;39.642;22.430;2022-08-11T04:12:37;26.65;51.32
65478;SHT31;53678;39.642;22.430;2022-08-11T04:33:52;27.50;50.25
65478;SHT31;53678;39.642;22.430;2022-08-11T04:43:03;28.32;48.60
65478;SHT31;53678;39.642;22.430;2022-08-11T04:57:57;29.01;47.17
65478;SHT31;53678;39.642;22.430;2022-08-11T05:12:53;29.29;47.10
65478;SHT31;53678;39.642;22.430;2022-08-11T05:15:35;30.29;44.87
65478;SHT31;53678;39.642;22.430;2022-08-11T05:18:25;31.10;43.27
65478;SHT31;53678;39.642;22.430;2022-08-11T05:21:12;29.09;47.30
65478;SHT31;53678;39.642;22.430;2022-08-11T05:24:30;28.80;48.01
65478;SHT31;53678;39.642;22.430;2022-08-11T05:27:18;29.45;47.02
65478;SHT31;53678;39.642;22.430;2022-08-11T05:30:07;30.45;45.55
65478;SHT31;53678;39.642;22.430;2022-08-11T05:33:04;31.17;44.03
65478;SHT31;53678;39.642;22.430;2022-08-11T05:35:57;31.55;42.89
65478;SHT31;53678;39.642;22.430;2022-08-11T05:38:27;32.12;41.88
65478;SHT31;53678;39.642;22.430;2022-08-11T05:41:13;32.44;40.95
65478;SHT31;53678;39.642;22.430;2022-08-11T05:44:00;32.41;41.31
65478;SHT31;53678;39.642;22.430;2022-08-11T05:46:45;32.97;40.61
65478;SHT31;53678;39.642;22.430;2022-08-11T05:49:31;32.57;41.04
65478;SHT31;53678;39.642;22.430;2022-08-11T05:52:19;32.50;41.29
65478;SHT31;53678;39.642;22.430;2022-08-11T05:55:05;31.92;42.42
65478;SHT31;53678;39.642;22.430;2022-08-11T05:57:59;31.57;44.06
65478;SHT31;53678;39.642;22.430;2022-08-11T06:00:26;31.55;44.34
65478;SHT31;53678;39.642;22.430;2022-08-11T06:02:55;31.17;45.09
65478;SHT31;53678;39.642;22.430;2022-08-11T06:05:32;30.99;46.01
65478;SHT31;53678;39.642;22.430;2022-08-11T06:07:58;31.54;45.82
65478;SHT31;53678;39.642;22.430;2022-08-11T06:10:31;31.68;45.20
65478;SHT31;53678;39.642;22.430;2022-08-11T06:13:02;31.86;45.00
65478;SHT31;53678;39.642;22.430;2022-08-11T06:15:31;32.06;44.42
65478;SHT31;53678;39.642;22.430;2022-08-11T06:17:59;31.38;46.22
65478;SHT31;53678;39.642;22.430;2022-08-11T06:20:26;30.65;48.74
65478;SHT31;53678;39.642;22.430;2022-08-11T06:23:05;30.41;49.63
65478;SHT31;53678;39.642;22.430;2022-08-11T06:25:33;30.21;49.75
65478;SHT31;53678;39.642;22.430;2022-08-11T06:28:03;30.52;49.38
65478;SHT31;53678;39.642;22.430;2022-08-11T06:30:36;30.45;49.19
65478;SHT31;53678;39.642;22.430;2022-08-11T06:33:12;30.41;48.93
65478;SHT31;53678;39.642;22.430;2022-08-11T06:35:50;30.13;49.58
65478;SHT31;53678;39.642;22.430;2022-08-11T06:38:48;30.66;48.38
65478;SHT31;53678;39.642;22.430;2022-08-11T06:41:48;31.23;47.56
65478;SHT31;53678;39.642;22.430;2022-08-11T06:44:32;31.82;46.28
65478;SHT31;53678;39.642;22.430;2022-08-11T06:47:08;31.98;45.53
65478;SHT31;53678;39.642;22.430;2022-08-11T06:49:37;31.98;45.57
65478;SHT31;53678;39.642;22.430;2022-08-11T06:52:32;31.88;46.04
65478;SHT31;53678;39.642;22.430;2022-08-11T06:55:04;31.74;46.32
65478;SHT31;53678;39.642;22.430;2022-08-11T06:57:33;31.51;46.42
65478;SHT31;53678;39.642;22.430;2022-08-11T07:00:30;31.14;46.93
65478;SHT31;53678;39.642;22.430;2022-08-11T07:15:34;32.57;43.82
65478;SHT31;53678;39.642;22.430;2022-08-11T07:18:09;32.52;43.50
65478;SHT31;53678;39.642;22.430;2022-08-11T07:21:07;32.47;43.57
65478;SHT31;53678;39.642;22.430;2022-08-11T07:23:54;31.14;45.60
65478;SHT31;53678;39.642;22.430;2022-08-11T07:26:44;30.66;45.55
65478;SHT31;53678;39.642;22.430;2022-08-11T07:29:31;31.77;44.40
65478;SHT31;53678;39.642;22.430;2022-08-11T07:31:57;31.04;45.02
65478;SHT31;53678;39.642;22.430;2022-08-11T07:34:34;31.13;45.48
65478;SHT31;53678;39.642;22.430;2022-08-11T07:37:08;31.16;45.37
65478;SHT31;53678;39.642;22.430;2022-08-11T07:39:36;31.24;45.45
65478;SHT31;53678;39.642;22.430;2022-08-11T07:42:09;32.15;44.05
65478;SHT31;53678;39.642;22.430;2022-08-11T07:44:36;32.56;43.42
65478;SHT31;53678;39.642;22.430;2022-08-11T07:47:26;32.10;42.68
65478;SHT31;53678;39.642;22.430;2022-08-11T07:50:11;31.57;43.96
65478;SHT31;53678;39.642;22.430;2022-08-11T07:52:57;32.25;43.21
65478;SHT31;53678;39.642;22.430;2022-08-11T07:55:25;32.87;42.09
65478;SHT31;53678;39.642;22.430;2022-08-11T07:57:52;33.34;41.48
65478;SHT31;53678;39.642;22.430;2022-08-11T08:00:57;32.98;41.66
65478;SHT31;53678;39.642;22.430;2022-08-11T08:03:43;32.76;42.32
65478;SHT31;53678;39.642;22.430;2022-08-11T08:06:28;33.31;41.31
65478;SHT31;53678;39.642;22.430;2022-08-11T08:09:17;32.91;41.85
65478;SHT31;53678;39.642;22.430;2022-08-11T08:12:03;32.95;41.09
65478;SHT31;53678;39.642;22.430;2022-08-11T08:14:49;32.85;41.69
65478;SHT31;53678;39.642;22.430;2022-08-11T08:17:34;32.01;42.63
65478;SHT31;53678;39.642;22.430;2022-08-11T08:21:07;31.90;43.20
65478;SHT31;53678;39.642;22.430;2022-08-11T08:23:08;32.04;42.39
65478;SHT31;53678;39.642;22.430;2022-08-11T08:25:38;32.35;41.96
65478;SHT31;53678;39.642;22.430;2022-08-11T08:28:06;32.30;41.82
65478;SHT31;53678;39.642;22.430;2022-08-11T08:30:34;32.47;41.20
65478;SHT31;53678;39.642;22.430;2022-08-11T08:33:24;32.91;40.33
65478;SHT31;53678;39.642;22.430;2022-08-11T08:35:53;33.11;40.17
65478;SHT31;53678;39.642;22.430;2022-08-11T08:38:50;33.22;40.71
65478;SHT31;53678;39.642;22.430;2022-08-11T08:41:28;32.04;43.39
65478;SHT31;53678;39.642;22.430;2022-08-11T08:44:20;32.64;41.58
65478;SHT31;53678;39.642;22.430;2022-08-11T08:46:50;32.47;41.82
65478;SHT31;53678;39.642;22.430;2022-08-11T08:49:24;32.61;40.91
65478;SHT31;53678;39.642;22.430;2022-08-11T08:51:53;32.64;39.29
65478;SHT31;53678;39.642;22.430;2022-08-11T08:54:33;32.80;38.21
65478;SHT31;53678;39.642;22.430;2022-08-11T08:57:06;33.03;39.37
65478;SHT31;53678;39.642;22.430;2022-08-11T08:59:40;33.21;39.09
65478;SHT31;53678;39.642;22.430;2022-08-11T09:02:08;33.18;39.43
65478;SHT31;53678;39.642;22.430;2022-08-11T09:04:39;32.71;40.16
65478;SHT31;53678;39.642;22.430;2022-08-11T09:07:10;32.78;39.83
65478;SHT31;53678;39.642;22.430;2022-08-11T09:09:42;32.60;40.24
65478;SHT31;53678;39.642;22.430;2022-08-11T09:12:10;32.83;40.06
65478;SHT31;53678;39.642;22.430;2022-08-11T09:14:39;33.04;39.74
65478;SHT31;53678;39.642;22.430;2022-08-11T09:17:44;32.60;40.57
65478;SHT31;53678;39.642;22.430;2022-08-11T09:20:13;32.32;40.74
65478;SHT31;53678;39.642;22.430;2022-08-11T09:22:42;32.05;40.98
65478;SHT31;53678;39.642;22.430;2022-08-11T09:25:30;32.05;41.04
65478;SHT31;53678;39.642;22.430;2022-08-11T09:28:15;32.16;41.00
65478;SHT31;53678;39.642;22.430;2022-08-11T09:30:47;32.30;40.51
65478;SHT31;53678;39.642;22.430;2022-08-11T09:33:18;32.46;40.21
65478;SHT31;53678;39.642;22.430;2022-08-11T09:35:46;32.52;40.38
65478;SHT31;53678;39.642;22.430;2022-08-11T09:38:14;32.70;39.92
65478;SHT31;53678;39.642;22.430;2022-08-11T09:41:03;32.74;39.94
65478;SHT31;53678;39.642;22.430;2022-08-11T09:43:30;32.46;40.57
65478;SHT31;53678;39.642;22.430;2022-08-11T09:46:16;32.20;41.16
65478;SHT31;53678;39.642;22.430;2022-08-11T09:48:47;32.26;40.80
65478;SHT31;53678;39.642;22.430;2022-08-11T09:51:14;32.57;40.32
65478;SHT31;53678;39.642;22.430;2022-08-11T09:53:43;32.18;40.78
65478;SHT31;53678;39.642;22.430;2022-08-11T09:56:17;31.96;41.06
65478;SHT31;53678;39.642;22.430;2022-08-11T09:59:03;31.75;41.16
65478;SHT31;53678;39.642;22.430;2022-08-11T10:01:34;31.61;41.58
65478;SHT31;53678;39.642;22.430;2022-08-11T10:04:19;31.60;41.41
65478;SHT31;53678;39.642;22.430;2022-08-11T10:06:52;32.43;39.74
65478;SHT31;53678;39.642;22.430;2022-08-11T10:09:51;32.77;39.72
65478;SHT31;53678;39.642;22.430;2022-08-11T10:15:01;31.09;41.75
65478;SHT31;53678;39.642;22.430;2022-08-11T10:17:48;31.38;41.90
65478;SHT31;53678;39.642;22.430;2022-08-11T10:20:36;31.81;41.06
65478;SHT31;53678;39.642;22.430;2022-08-11T10:23:04;31.98;40.50
65478;SHT31;53678;39.642;22.430;2022-08-11T10:25:49;32.52;39.99
65478;SHT31;53678;39.642;22.430;2022-08-11T10:28:34;32.49;39.77
65478;SHT31;53678;39.642;22.430;2022-08-11T10:31:03;32.23;39.90
65478;SHT31;53678;39.642;22.430;2022-08-11T10:33:49;32.18;39.98
65478;SHT31;53678;39.642;22.430;2022-08-11T10:36:41;32.06;40.13
65478;SHT31;53678;39.642;22.430;2022-08-11T10:39:17;32.39;39.63
65478;SHT31;53678;39.642;22.430;2022-08-11T10:41:46;32.52;39.27
65478;SHT31;53678;39.642;22.430;2022-08-11T10:44:36;31.86;40.06
65478;SHT31;53678;39.642;22.430;2022-08-11T10:47:03;32.73;38.84
65478;SHT31;53678;39.642;22.430;2022-08-11T10:49:49;32.64;38.39
65478;SHT31;53678;39.642;22.430;2022-08-11T10:52:36;32.83;38.31
65478;SHT31;53678;39.642;22.430;2022-08-11T10:55:22;33.19;37.80
65478;SHT31;53678;39.642;22.430;2022-08-11T10:58:09;33.24;37.54
65478;SHT31;53678;39.642;22.430;2022-08-11T11:00:54;33.42;37.25
65478;SHT31;53678;39.642;22.430;2022-08-11T11:03:28;33.31;37.25
65478;SHT31;53678;39.642;22.430;2022-08-11T11:06:34;33.24;37.51
65478;SHT31;53678;39.642;22.430;2022-08-11T11:09:00;32.59;38.30
65478;SHT31;53678;39.642;22.430;2022-08-11T11:11:30;32.88;38.16
65478;SHT31;53678;39.642;22.430;2022-08-11T11:14:18;32.73;38.34
65478;SHT31;53678;39.642;22.430;2022-08-11T11:17:08;32.36;38.61
65478;SHT31;53678;39.642;22.430;2022-08-11T11:19:57;32.15;38.87
65478;SHT31;53678;39.642;22.430;2022-08-11T11:22:27;31.85;39.50
65478;SHT31;53678;39.642;22.430;2022-08-11T11:25:12;32.55;38.61
65478;SHT31;53678;39.642;22.430;2022-08-11T11:30:31;32.59;38.33
65478;SHT31;53678;39.642;22.430;2022-08-11T11:33:21;32.52;38.85
65478;SHT31;53678;39.642;22.430;2022-08-11T11:38:24;32.16;39.23
65478;SHT31;53678;39.642;22.430;2022-08-11T11:40:51;32.26;39.18
65478;SHT31;53678;39.642;22.430;2022-08-11T11:43:37;31.78;39.87
65478;SHT31;53678;39.642;22.430;2022-08-11T11:46:04;31.96;39.77
65478;SHT31;53678;39.642;22.430;2022-08-11T11:48:33;32.20;39.35
65478;SHT31;53678;39.642;22.430;2022-08-11T11:51:00;32.49;38.78
65478;SHT31;53678;39.642;22.430;2022-08-11T11:53:26;32.37;39.48
65478;SHT31;53678;39.642;22.430;2022-08-11T11:55:52;32.37;38.99
65478;SHT31;53678;39.642;22.430;2022-08-11T11:58:19;32.50;39.31
65478;SHT31;53678;39.642;22.430;2022-08-11T12:01:04;32.60;39.76
65478;SHT31;53678;39.642;22.430;2022-08-11T12:03:46;32.81;38.91
65478;SHT31;53678;39.642;22.430;2022-08-11T12:06:16;32.81;38.61
65478;SHT31;53678;39.642;22.430;2022-08-11T12:08:43;32.67;38.77
65478;SHT31;53678;39.642;22.430;2022-08-11T12:11:10;32.67;39.05
65478;SHT31;53678;39.642;22.430;2022-08-11T12:13:58;32.88;38.22
65478;SHT31;53678;39.642;22.430;2022-08-11T12:16:25;33.18;37.50
65478;SHT31;53678;39.642;22.430;2022-08-11T12:18:56;33.26;36.90
65478;SHT31;53678;39.642;22.430;2022-08-11T12:21:23;33.25;36.91
65478;SHT31;53678;39.642;22.430;2022-08-11T12:23:50;32.67;37.72
65478;SHT31;53678;39.642;22.430;2022-08-11T12:26:35;32.66;39.67
65478;SHT31;53678;39.642;22.430;2022-08-11T12:29:23;32.73;39.22
65478;SHT31;53678;39.642;22.430;2022-08-11T12:31:55;33.14;38.04
65478;SHT31;53678;39.642;22.430;2022-08-11T12:34:26;33.15;38.41
65478;SHT31;53678;39.642;22.430;2022-08-11T12:36:56;32.94;38.58
65478;SHT31;53678;39.642;22.430;2022-08-11T12:39:26;32.81;39.38
65478;SHT31;53678;39.642;22.430;2022-08-11T12:42:13;32.68;39.29
65478;SHT31;53678;39.642;22.430;2022-08-11T12:45:01;32.67;39.14
65478;SHT31;53678;39.642;22.430;2022-08-11T12:47:49;32.61;39.32
65478;SHT31;53678;39.642;22.430;2022-08-11T12:50:35;33.07;38.36
65478;SHT31;53678;39.642;22.430;2022-08-11T12:53:27;33.03;38.24
65478;SHT31;53678;39.642;22.430;2022-08-11T12:55:56;33.46;37.68
65478;SHT31;53678;39.642;22.430;2022-08-11T12:58:41;33.74;37.52
65478;SHT31;53678;39.642;22.430;2022-08-11T13:01:09;32.91;38.49
65478;SHT31;53678;39.642;22.430;2022-08-11T13:03:54;32.81;38.16
65478;SHT31;53678;39.642;22.430;2022-08-11T13:06:40;32.76;38.51
65478;SHT31;53678;39.642;22.430;2022-08-11T13:09:08;32.35;39.14
65478;SHT31;53678;39.642;22.430;2022-08-11T13:11:37;32.59;39.02
65478;SHT31;53678;39.642;22.430;2022-08-11T13:14:22;33.12;38.96
65478;SHT31;53678;39.642;22.430;2022-08-11T13:16:50;32.77;38.59
65478;SHT31;53678;39.642;22.430;2022-08-11T13:19:34;32.70;38.93
65478;SHT31;53678;39.642;22.430;2022-08-11T13:22:01;32.78;38.99
65478;SHT31;53678;39.642;22.430;2022-08-11T13:24:30;32.61;38.69
65478;SHT31;53678;39.642;22.430;2022-08-11T13:26:59;32.56;39.12
65478;SHT31;53678;39.642;22.430;2022-08-11T13:29:26;32.46;39.65
65478;SHT31;53678;39.642;22.430;2022-08-11T13:31:55;32.59;39.19
65478;SHT31;53678;39.642;22.430;2022-08-11T13:34:24;32.92;38.45
65478;SHT31;53678;39.642;22.430;2022-08-11T13:36:57;32.98;38.04
65478;SHT31;53678;39.642;22.430;2022-08-11T13:39:27;32.90;37.83
65478;SHT31;53678;39.642;22.430;2022-08-11T13:41:55;32.91;38.02
65478;SHT31;53678;39.642;22.430;2022-08-11T13:44:23;32.76;38.48
65478;SHT31;53678;39.642;22.430;2022-08-11T13:47:01;32.57;38.99
65478;SHT31;53678;39.642;22.430;2022-08-11T13:49:30;32.40;39.49
65478;SHT31;53678;39.642;22.430;2022-08-11T13:51:57;32.32;39.08
65478;SHT31;53678;39.642;22.430;2022-08-11T13:54:29;32.35;38.35
65478;SHT31;53678;39.642;22.430;2022-08-11T13:56:58;32.30;38.89
65478;SHT31;53678;39.642;22.430;2022-08-11T13:59:25;32.52;39.11
65478;SHT31;53678;39.642;22.430;2022-08-11T14:01:55;32.16;39.42
65478;SHT31;53678;39.642;22.430;2022-08-11T14:04:31;32.26;38.93
65478;SHT31;53678;39.642;22.430;2022-08-11T14:07:04;32.10;39.26
65478;SHT31;53678;39.642;22.430;2022-08-11T14:09:40;32.16;39.40
65478;SHT31;53678;39.642;22.430;2022-08-11T14:12:12;32.05;39.32
65478;SHT31;53678;39.642;22.430;2022-08-11T14:15:08;32.19;38.85
65478;SHT31;53678;39.642;22.430;2022-08-11T14:17:38;32.20;39.94
65478;SHT31;53678;39.642;22.430;2022-08-11T14:20:07;31.96;40.90
65478;SHT31;53678;39.642;22.430;2022-08-11T14:22:35;32.01;40.78
65478;SHT31;53678;39.642;22.430;2022-08-11T14:25:03;31.85;41.24
65478;SHT31;53678;39.642;22.430;2022-08-11T14:27:29;31.93;40.77
65478;SHT31;53678;39.642;22.430;2022-08-11T14:29:56;31.65;40.96
65478;SHT31;53678;39.642;22.430;2022-08-11T14:32:23;31.75;40.92
65478;SHT31;53678;39.642;22.430;2022-08-11T14:34:49;31.77;40.82
65478;SHT31;53678;39.642;22.430;2022-08-11T14:37:21;31.67;40.97
65478;SHT31;53678;39.642;22.430;2022-08-11T14:39:52;31.47;41.05
65478;SHT31;53678;39.642;22.430;2022-08-11T14:42:23;31.75;40.87
65478;SHT31;53678;39.642;22.430;2022-08-11T14:45:13;31.62;40.64
65478;SHT31;53678;39.642;22.430;2022-08-11T14:47:59;31.71;40.82
65478;SHT31;53678;39.642;22.430;2022-08-11T14:50:28;31.71;41.02
65478;SHT31;53678;39.642;22.430;2022-08-11T14:53:01;31.51;41.38
65478;SHT31;53678;39.642;22.430;2022-08-11T14:55:37;31.61;41.28
65478;SHT31;53678;39.642;22.430;2022-08-11T14:58:25;31.54;41.54
65478;SHT31;53678;39.642;22.430;2022-08-11T15:00:54;31.37;41.84
65478;SHT31;53678;39.642;22.430;2022-08-11T15:03:21;31.35;41.70
65478;SHT31;53678;39.642;22.430;2022-08-11T15:05:55;31.54;41.58
65478;SHT31;53678;39.642;22.430;2022-08-11T15:08:21;31.42;41.97
65478;SHT31;53678;39.642;22.430;2022-08-11T15:11:12;31.16;42.80
65478;SHT31;53678;39.642;22.430;2022-08-11T15:14:03;31.10;44.29
65478;SHT31;53678;39.642;22.430;2022-08-11T15:16:31;30.73;45.88
65478;SHT31;53678;39.642;22.430;2022-08-11T15:19:16;30.59;46.29
65478;SHT31;53678;39.642;22.430;2022-08-11T15:21:46;30.73;46.31
65478;SHT31;53678;39.642;22.430;2022-08-11T15:24:31;30.78;46.57
65478;SHT31;53678;39.642;22.430;2022-08-11T15:27:04;30.75;46.84
65478;SHT31;53678;39.642;22.430;2022-08-11T15:29:50;30.80;46.93
65478;SHT31;53678;39.642;22.430;2022-08-11T15:32:38;30.83;46.27
65478;SHT31;53678;39.642;22.430;2022-08-11T15:35:25;30.59;46.64
65478;SHT31;53678;39.642;22.430;2022-08-11T15:38:12;30.46;47.20
65478;SHT31;53678;39.642;22.430;2022-08-11T15:40:40;30.38;47.32
65478;SHT31;53678;39.642;22.430;2022-08-11T15:43:30;30.32;47.14
65478;SHT31;53678;39.642;22.430;2022-08-11T15:46:34;30.05;47.12
65478;SHT31;53678;39.642;22.430;2022-08-11T15:49:09;29.96;48.62
65478;SHT31;53678;39.642;22.430;2022-08-11T15:51:57;29.78;49.89
65478;SHT31;53678;39.642;22.430;2022-08-11T15:54:26;29.77;50.17
65478;SHT31;53678;39.642;22.430;2022-08-11T15:56:57;29.72;50.63
65478;SHT31;53678;39.642;22.430;2022-08-11T15:59:24;29.84;50.36
65478;SHT31;53678;39.642;22.430;2022-08-11T16:02:14;29.81;49.97
65478;SHT31;53678;39.642;22.430;2022-08-11T16:05:01;29.70;49.69
65478;SHT31;53678;39.642;22.430;2022-08-11T16:07:30;29.59;49.55
65478;SHT31;53678;39.642;22.430;2022-08-11T16:10:03;29.56;49.57
65478;SHT31;53678;39.642;22.430;2022-08-11T16:12:42;29.66;49.23
65478;SHT31;53678;39.642;22.430;2022-08-11T16:15:39;29.72;49.11
65478;SHT31;53678;39.642;22.430;2022-08-11T16:18:29;29.66;49.32
65478;SHT31;53678;39.642;22.430;2022-08-11T16:21:22;29.45;50.48
65478;SHT31;53678;39.642;22.430;2022-08-11T16:23:51;29.36;51.11
65478;SHT31;53678;39.642;22.430;2022-08-11T16:26:20;29.18;52.70
65478;SHT31;53678;39.642;22.430;2022-08-11T16:28:59;28.82;54.44
65478;SHT31;53678;39.642;22.430;2022-08-11T16:31:26;28.51;54.95
65478;SHT31;53678;39.642;22.430;2022-08-11T16:33:54;28.30;55.55
65478;SHT31;53678;39.642;22.430;2022-08-11T16:36:23;28.27;55.40
65478;SHT31;53678;39.642;22.430;2022-08-11T16:39:09;28.32;55.33
65478;SHT31;53678;39.642;22.430;2022-08-11T16:41:38;28.01;58.52
65478;SHT31;53678;39.642;22.430;2022-08-11T16:44:25;28.13;58.75
65478;SHT31;53678;39.642;22.430;2022-08-11T16:47:13;27.66;62.10
65478;SHT31;53678;39.642;22.430;2022-08-11T16:49:47;27.64;65.87
65478;SHT31;53678;39.642;22.430;2022-08-11T16:52:14;27.55;64.72
65478;SHT31;53678;39.642;22.430;2022-08-11T16:54:42;27.50;64.18
65478;SHT31;53678;39.642;22.430;2022-08-11T16:57:12;27.73;62.98
65478;SHT31;53678;39.642;22.430;2022-08-11T17:00:02;27.73;61.29
65478;SHT31;53678;39.642;22.430;2022-08-11T17:02:32;27.35;62.78
65478;SHT31;53678;39.642;22.430;2022-08-11T17:05:22;27.41;62.78
65478;SHT31;53678;39.642;22.430;2022-08-11T17:08:07;27.51;63.90
65478;SHT31;53678;39.642;22.430;2022-08-11T17:11:02;27.78;61.77
65478;SHT31;53678;39.642;22.430;2022-08-11T17:13:53;27.30;63.64
65478;SHT31;53678;39.642;22.430;2022-08-11T17:16:23;26.90;64.72
65478;SHT31;53678;39.642;22.430;2022-08-11T17:19:05;27.07;64.36
65478;SHT31;53678;39.642;22.430;2022-08-11T17:21:41;27.02;64.45
65478;SHT31;53678;39.642;22.430;2022-08-11T17:24:29;26.95;63.36
65478;SHT31;53678;39.642;22.430;2022-08-11T17:26:56;27.02;63.15
65478;SHT31;53678;39.642;22.430;2022-08-11T17:29:32;27.16;62.38
65478;SHT31;53678;39.642;22.430;2022-08-11T17:32:04;27.16;62.75
65478;SHT31;53678;39.642;22.430;2022-08-11T17:34:52;27.10;62.02
65478;SHT31;53678;39.642;22.430;2022-08-11T17:38:19;27.00;63.34
65478;SHT31;53678;39.642;22.430;2022-08-11T17:40:51;26.78;64.08
65478;SHT31;53678;39.642;22.430;2022-08-11T17:43:36;26.56;65.26
65478;SHT31;53678;39.642;22.430;2022-08-11T17:46:22;26.69;64.66
65478;SHT31;53678;39.642;22.430;2022-08-11T17:49:10;26.79;64.19
65478;SHT31;53678;39.642;22.430;2022-08-11T17:51:38;26.85;63.17
65478;SHT31;53678;39.642;22.430;2022-08-11T17:54:23;26.95;63.42
65478;SHT31;53678;39.642;22.430;2022-08-11T17:57:09;26.99;63.33
65478;SHT31;53678;39.642;22.430;2022-08-11T17:59:54;27.44;61.74
65478;SHT31;53678;39.642;22.430;2022-08-11T18:02:29;27.38;62.12
65478;SHT31;53678;39.642;22.430;2022-08-11T18:05:15;27.17;62.90
65478;SHT31;53678;39.642;22.430;2022-08-11T18:07:44;27.10;63.03
65478;SHT31;53678;39.642;22.430;2022-08-11T18:10:30;27.31;61.78
65478;SHT31;53678;39.642;22.430;2022-08-11T18:13:19;26.80;63.11
65478;SHT31;53678;39.642;22.430;2022-08-11T18:16:04;26.92;62.96
65478;SHT31;53678;39.642;22.430;2022-08-11T18:18:49;27.00;62.27
65478;SHT31;53678;39.642;22.430;2022-08-11T18:21:35;27.40;60.98
65478;SHT31;53678;39.642;22.430;2022-08-11T18:24:22;27.64;60.11
65478;SHT31;53678;39.642;22.430;2022-08-11T18:27:10;27.37;61.75
65478;SHT31;53678;39.642;22.430;2022-08-11T18:29:57;27.23;61.94
65478;SHT31;53678;39.642;22.430;2022-08-11T18:32:42;27.10;62.30
65478;SHT31;53678;39.642;22.430;2022-08-11T18:35:27;27.07;62.98
65478;SHT31;53678;39.642;22.430;2022-08-11T18:38:13;27.08;63.11
65478;SHT31;53678;39.642;22.430;2022-08-11T18:41:00;27.02;63.08
65478;SHT31;53678;39.642;22.430;2022-08-11T18:43:47;27.17;62.95
65478;SHT31;53678;39.642;22.430;2022-08-11T18:46:35;27.16;63.22
65478;SHT31;53678;39.642;22.430;2022-08-11T18:49:25;27.34;62.16
65478;SHT31;53678;39.642;22.430;2022-08-11T18:52:12;27.48;62.07
65478;SHT31;53678;39.642;22.430;2022-08-11T18:54:59;27.30;62.05
65478;SHT31;53678;39.642;22.430;2022-08-11T18:57:46;27.40;62.03
65478;SHT31;53678;39.642;22.430;2022-08-11T19:00:32;27.29;62.41
65478;SHT31;53678;39.642;22.430;2022-08-11T19:03:19;27.33;62.11
65478;SHT31;53678;39.642;22.430;2022-08-11T19:06:05;27.30;60.51
65478;SHT31;53678;39.642;22.430;2022-08-11T19:08:56;27.27;59.04
65478;SHT31;53678;39.642;22.430;2022-08-11T19:11:42;27.34;58.79
65478;SHT31;53678;39.642;22.430;2022-08-11T19:14:29;27.34;58.39
65478;SHT31;53678;39.642;22.430;2022-08-11T19:17:14;27.34;58.17
65478;SHT31;53678;39.642;22.430;2022-08-11T19:20:02;27.33;58.57
65478;SHT31;53678;39.642;22.430;2022-08-11T19:22:47;27.54;57.76
65478;SHT31;53678;39.642;22.430;2022-08-11T19:25:33;27.54;57.55
65478;SHT31;53678;39.642;22.430;2022-08-11T19:28:19;27.59;56.95
65478;SHT31;53678;39.642;22.430;2022-08-11T19:31:07;27.59;57.31
65478;SHT31;53678;39.642;22.430;2022-08-11T19:33:51;27.84;57.06
65478;SHT31;53678;39.642;22.430;2022-08-11T19:36:37;27.89;56.57
65478;SHT31;53678;39.642;22.430;2022-08-11T19:39:24;27.95;56.88
65478;SHT31;53678;39.642;22.430;2022-08-11T19:42:10;28.06;56.37
65478;SHT31;53678;39.642;22.430;2022-08-11T19:44:56;28.09;56.19
65478;SHT31;53678;39.642;22.430;2022-08-11T19:47:43;28.09;56.07
65478;SHT31;53678;39.642;22.430;2022-08-11T19:50:29;28.01;56.17
65478;SHT31;53678;39.642;22.430;2022-08-11T19:53:14;28.05;56.06
65478;SHT31;53678;39.642;22.430;2022-08-11T19:55:59;27.99;55.86